Time;durP1;ratioP1;P1;durP2;ratioP2;P2;SDS_P1;SDS_P2;PMS_P1;PMS_P2;Temp;Humidity;BMP_temperature;BMP_pressure;BME280_temperature;BME280_humidity;BME280_pressure;Samples;Min_cycle;Max_cycle;Signal;HPM_P1;HPM_P2
2021/09/19 00:00:01;;;;;;;11.47;10.57;;;;;;;10.72;92.35;95350.47;5013044;28;20232;-70
2021/09/19 00:02:33;;;;;;;8.83;8.33;;;;;;;10.70;92.67;95339.31;5019370;28;20241;-70
2021/09/19 00:05:01;;;;;;;9.40;8.67;;;;;;;10.68;92.54;95333.38;5024663;28;20249;-71
2021/09/19 00:07:29;;;;;;;10.23;9.43;;;;;;;10.66;92.64;95338.03;5018219;28;20302;-70
2021/09/19 00:09:57;;;;;;;7.90;7.40;;;;;;;10.64;92.22;95334.78;5007698;28;20254;-70
2021/09/19 00:12:26;;;;;;;8.40;7.80;;;;;;;10.61;92.69;95325.44;5003965;28;20231;-70
2021/09/19 00:14:54;;;;;;;8.20;7.60;;;;;;;10.60;92.22;95328.25;5016963;28;20257;-70
2021/09/19 00:17:22;;;;;;;8.80;8.10;;;;;;;10.58;92.34;95330.25;5016641;28;20238;-71
2021/09/19 00:19:51;;;;;;;9.80;9.00;;;;;;;10.57;92.22;95332.09;5020256;28;20258;-70
2021/09/19 00:22:20;;;;;;;9.07;8.30;;;;;;;10.56;92.15;95317.28;5022991;28;20624;-70
2021/09/19 00:24:48;;;;;;;9.27;8.57;;;;;;;10.57;92.46;95318.09;5019737;28;20700;-70
2021/09/19 00:27:17;;;;;;;9.47;8.50;;;;;;;10.59;92.66;95318.69;5008923;28;20573;-70
2021/09/19 00:29:45;;;;;;;9.17;8.47;;;;;;;10.59;92.67;95313.44;5000632;28;20458;-70
2021/09/19 00:32:13;;;;;;;10.30;9.50;;;;;;;10.61;92.57;95316.72;5021740;28;20758;-70
2021/09/19 00:34:41;;;;;;;9.03;8.43;;;;;;;10.61;92.87;95308.78;5018050;28;20257;-70
2021/09/19 00:37:11;;;;;;;9.43;8.83;;;;;;;10.60;92.74;95313.22;5023797;28;20223;-70
2021/09/19 00:39:39;;;;;;;10.87;9.97;;;;;;;10.60;93.10;95309.78;5009535;28;20453;-70
2021/09/19 00:42:07;;;;;;;9.87;9.07;;;;;;;10.59;92.84;95313.44;5014767;28;20219;-70
2021/09/19 00:44:36;;;;;;;10.10;9.20;;;;;;;10.58;93.02;95309.97;5019945;28;20218;-71
2021/09/19 00:47:04;;;;;;;9.40;8.53;;;;;;;10.58;92.91;95309.16;5015446;28;20401;-70
2021/09/19 00:49:32;;;;;;;9.90;9.13;;;;;;;10.59;92.86;95313.44;5013002;28;20721;-70
2021/09/19 00:52:00;;;;;;;12.13;11.13;;;;;;;10.58;92.56;95325.81;4994362;28;20275;-70
2021/09/19 00:54:40;;;;;;;9.30;8.70;;;;;;;10.56;92.86;95308.53;5019463;28;20228;-71
2021/09/19 00:57:09;;;;;;;9.23;8.53;;;;;;;10.51;92.88;95309.09;5012536;28;20223;-70
2021/09/19 00:59:38;;;;;;;9.53;8.73;;;;;;;10.49;92.66;95309.31;5006936;28;20816;-70
2021/09/19 01:02:08;;;;;;;10.40;9.60;;;;;;;10.45;92.51;95310.69;5014168;28;20225;-70
2021/09/19 01:04:37;;;;;;;9.80;9.10;;;;;;;10.36;92.48;95306.56;5024613;28;20219;-70
2021/09/19 01:07:06;;;;;;;11.87;10.97;;;;;;;10.35;92.37;95304.94;5020987;28;20223;-70
2021/09/19 01:09:37;;;;;;;11.10;10.27;;;;;;;10.36;92.22;95303.13;5012945;28;20220;-70
2021/09/19 01:12:06;;;;;;;10.40;9.57;;;;;;;10.38;92.75;95298.47;5020144;28;20230;-70
2021/09/19 01:14:37;;;;;;;10.40;9.67;;;;;;;10.32;92.54;95292.13;5011286;28;20978;-70
2021/09/19 01:17:06;;;;;;;10.90;10.10;;;;;;;10.30;92.68;95296.78;5020173;28;20224;-70
2021/09/19 01:19:37;;;;;;;11.20;10.20;;;;;;;10.29;92.54;95286.44;5021979;28;20239;-70
2021/09/19 01:22:06;;;;;;;10.73;9.73;;;;;;;10.29;93.01;95284.59;5023438;28;20301;-69
2021/09/19 01:24:36;;;;;;;10.37;9.63;;;;;;;10.30;93.14;95288.88;5010010;28;20977;-70
2021/09/19 01:27:05;;;;;;;10.53;9.73;;;;;;;10.29;92.84;95284.59;4998666;28;20684;-70
2021/09/19 01:29:34;;;;;;;10.70;9.90;;;;;;;10.30;93.01;95280.94;5019789;28;20710;-70
2021/09/19 01:32:04;;;;;;;10.13;9.33;;;;;;;10.30;93.22;95283.59;5018516;28;20473;-70
2021/09/19 01:34:32;;;;;;;11.03;10.23;;;;;;;10.31;93.41;95279.94;5016435;28;20221;-70
2021/09/19 01:37:00;;;;;;;9.57;8.90;;;;;;;10.34;93.57;95282.22;5022763;28;20255;-70
2021/09/19 01:39:28;;;;;;;11.57;10.47;;;;;;;10.34;93.49;95269.03;5014776;28;20272;-70
2021/09/19 01:41:59;;;;;;;10.10;9.30;;;;;;;10.32;93.56;95262.28;5020531;28;20277;-70
2021/09/19 01:44:27;;;;;;;12.17;10.87;;;;;;;10.29;93.38;95263.50;4997914;28;20218;-70
2021/09/19 01:46:55;;;;;;;10.20;9.47;;;;;;;10.24;93.32;95256.19;5017648;28;20692;-70
2021/09/19 01:49:23;;;;;;;10.63;9.83;;;;;;;10.23;93.54;95254.53;5003885;28;20244;-70
2021/09/19 01:51:51;;;;;;;9.97;9.27;;;;;;;10.23;93.76;95254.53;5011569;28;20766;-70
2021/09/19 01:54:19;;;;;;;12.40;11.40;;;;;;;10.22;93.78;95249.44;5006746;28;20308;-70
2021/09/19 01:56:47;;;;;;;10.03;9.33;;;;;;;10.21;93.55;95245.97;5008384;28;20361;-70
2021/09/19 01:59:16;;;;;;;12.53;11.37;;;;;;;10.22;93.95;95252.09;5001666;28;20244;-70
2021/09/19 02:01:44;;;;;;;10.80;9.80;;;;;;;10.18;93.93;95254.28;5005757;28;20281;-70
2021/09/19 02:04:13;;;;;;;10.00;9.27;;;;;;;10.15;94.07;95251.19;5004037;28;20221;-70
2021/09/19 02:06:41;;;;;;;8.97;8.27;;;;;;;10.14;93.95;95257.47;5004664;28;20240;-70
2021/09/19 02:09:10;;;;;;;7.90;7.40;;;;;;;10.12;93.55;95249.75;5007812;28;20306;-70
2021/09/19 02:11:38;;;;;;;7.57;7.07;;;;;;;10.10;93.33;95256.22;5022435;28;20270;-71
2021/09/19 02:14:06;;;;;;;7.70;7.13;;;;;;;10.09;93.39;95247.50;5021842;28;20239;-70
2021/09/19 02:16:35;;;;;;;6.93;6.43;;;;;;;10.07;93.43;95246.06;5003732;28;20314;-70
2021/09/19 02:19:04;;;;;;;8.53;7.97;;;;;;;10.03;93.51;95247.44;5005491;28;20674;-70
2021/09/19 02:21:32;;;;;;;9.00;8.40;;;;;;;9.97;93.22;95239.31;5006072;28;20217;-71
2021/09/19 02:24:00;;;;;;;7.20;6.73;;;;;;;9.95;93.14;95245.75;5009965;28;20243;-70
2021/09/19 02:26:28;;;;;;;8.17;7.57;;;;;;;9.94;93.49;95246.75;5009779;28;20225;-70
2021/09/19 02:28:56;;;;;;;8.33;7.77;;;;;;;9.93;93.34;95240.66;5005397;28;20539;-71
2021/09/19 02:31:24;;;;;;;9.37;8.77;;;;;;;9.93;93.01;95237.22;5005362;28;20229;-71
2021/09/19 02:33:54;;;;;;;10.03;9.20;;;;;;;9.91;93.27;95240.06;5003486;28;20241;-70
2021/09/19 02:36:23;;;;;;;8.40;7.80;;;;;;;9.88;93.66;95232.53;5007040;28;20233;-70
2021/09/19 02:38:51;;;;;;;8.67;7.90;;;;;;;9.88;93.51;95240.44;5009972;28;20229;-70
2021/09/19 02:41:19;;;;;;;8.60;8.03;;;;;;;9.87;93.61;95227.44;5007604;28;20354;-70
2021/09/19 02:43:48;;;;;;;8.60;7.90;;;;;;;9.82;92.81;95220.09;4994876;28;20226;-70
2021/09/19 02:46:16;;;;;;;10.90;9.80;;;;;;;9.77;92.86;95208.50;5019830;28;21743;-70
2021/09/19 02:48:44;;;;;;;9.10;8.47;;;;;;;9.74;93.45;95207.06;5012593;28;20268;-71
2021/09/19 02:51:14;;;;;;;8.83;8.20;;;;;;;9.72;93.17;95198.53;4999010;28;20243;-70
2021/09/19 02:53:42;;;;;;;9.50;8.90;;;;;;;9.72;93.42;95197.72;5013570;28;20681;-70
2021/09/19 02:56:10;;;;;;;9.67;9.00;;;;;;;9.71;93.79;95194.28;4994425;28;20245;-71
2021/09/19 02:58:38;;;;;;;9.50;8.83;;;;;;;9.69;93.53;95191.00;5020948;28;20211;-70
2021/09/19 03:01:06;;;;;;;7.40;6.90;;;;;;;9.70;93.86;95192.66;5018240;28;20224;-70
2021/09/19 03:03:36;;;;;;;8.87;8.27;;;;;;;9.69;94.05;95189.19;5005163;28;20446;-70
2021/09/19 03:06:04;;;;;;;6.53;6.13;;;;;;;9.68;93.93;95192.00;5016504;28;20217;-70
2021/09/19 03:08:33;;;;;;;6.50;6.20;;;;;;;9.66;93.76;95199.28;5011372;28;20216;-70
2021/09/19 03:11:02;;;;;;;6.07;5.77;;;;;;;9.63;93.87;95189.94;5016486;28;20232;-71
2021/09/19 03:13:30;;;;;;;6.20;5.80;;;;;;;9.61;93.74;95180.63;5009845;28;20242;-70
2021/09/19 03:15:58;;;;;;;7.20;6.73;;;;;;;9.57;93.42;95181.97;5012701;28;20228;-70
2021/09/19 03:18:26;;;;;;;8.93;8.33;;;;;;;9.57;93.55;95172.25;5015149;28;20217;-71
2021/09/19 03:20:54;;;;;;;7.03;6.53;;;;;;;9.53;93.75;95172.84;5014267;28;20224;-70
2021/09/19 03:23:22;;;;;;;7.73;7.27;;;;;;;9.49;93.47;95166.31;5000861;28;20644;-71
2021/09/19 03:25:52;;;;;;;6.70;6.30;;;;;;;9.48;93.27;95170.75;5009440;28;20739;-71
2021/09/19 03:28:20;;;;;;;7.37;6.87;;;;;;;9.44;93.07;95163.44;5014559;28;20802;-70
2021/09/19 03:30:48;;;;;;;6.80;6.40;;;;;;;9.44;93.50;95169.53;5015894;28;20237;-70
2021/09/19 03:33:16;;;;;;;7.47;6.87;;;;;;;9.41;93.25;95168.06;5021656;28;20705;-70
2021/09/19 03:35:44;;;;;;;7.90;7.40;;;;;;;9.43;93.97;95177.59;5012602;28;20235;-71
2021/09/19 03:38:12;;;;;;;8.60;7.90;;;;;;;9.44;93.47;95179.25;5021179;28;20224;-70
2021/09/19 03:40:40;;;;;;;9.03;8.37;;;;;;;9.44;93.98;95173.97;5014024;28;20212;-71
2021/09/19 03:43:10;;;;;;;7.47;6.97;;;;;;;9.39;93.40;95177.16;5012435;28;20619;-71
2021/09/19 03:45:38;;;;;;;6.73;6.23;;;;;;;9.33;93.17;95178.75;5018222;28;20217;-71
2021/09/19 03:48:08;;;;;;;6.37;5.97;;;;;;;9.28;93.04;95169.75;5014563;28;20224;-71
2021/09/19 03:50:38;;;;;;;5.63;5.23;;;;;;;9.26;93.37;95171.78;5001162;28;20220;-70
2021/09/19 03:53:06;;;;;;;6.67;6.27;;;;;;;9.22;93.05;95170.50;5004491;28;20232;-70
2021/09/19 03:55:34;;;;;;;6.93;6.37;;;;;;;9.21;92.99;95168.88;5021786;28;20227;-70
2021/09/19 03:58:03;;;;;;;5.93;5.53;;;;;;;9.19;93.28;95168.25;5024143;28;20273;-71
2021/09/19 04:00:32;;;;;;;5.60;5.30;;;;;;;9.16;93.41;95172.09;5012514;28;20747;-71
2021/09/19 04:03:00;;;;;;;6.77;6.33;;;;;;;9.16;93.21;95172.09;5026942;28;20235;-70
2021/09/19 04:05:29;;;;;;;8.13;7.53;;;;;;;9.16;93.17;95166.81;5018287;28;20216;-71
2021/09/19 04:07:57;;;;;;;7.43;6.87;;;;;;;9.16;93.41;95166.00;5018872;28;20227;-70
2021/09/19 04:10:25;;;;;;;7.20;6.70;;;;;;;9.17;93.76;95168.44;5019916;28;20553;-70
2021/09/19 04:12:53;;;;;;;7.03;6.63;;;;;;;9.14;93.30;95163.53;5022524;28;20608;-71
2021/09/19 04:15:22;;;;;;;6.53;6.13;;;;;;;9.11;92.93;95163.91;5016967;28;20232;-71
2021/09/19 04:17:51;;;;;;;6.43;6.03;;;;;;;9.10;93.29;95164.91;5021922;28;20693;-70
2021/09/19 04:20:20;;;;;;;6.60;6.20;;;;;;;9.07;93.46;95167.94;5015241;28;20282;-70
2021/09/19 04:22:48;;;;;;;6.30;5.90;;;;;;;9.08;93.04;95174.81;5014825;28;20256;-70
2021/09/19 04:25:16;;;;;;;8.10;7.50;;;;;;;9.06;93.00;95174.19;5017521;28;20269;-70
2021/09/19 04:27:45;;;;;;;7.07;6.57;;;;;;;9.01;93.77;95177.38;5025914;28;20219;-70
2021/09/19 04:30:13;;;;;;;6.47;5.97;;;;;;;8.95;93.18;95172.03;5014394;28;20274;-70
2021/09/19 04:32:44;;;;;;;6.80;6.30;;;;;;;8.91;93.19;95173.41;5019455;28;20293;-70
2021/09/19 04:35:13;;;;;;;7.43;7.00;;;;;;;8.86;93.22;95171.31;5022526;28;20234;-70
2021/09/19 04:37:42;;;;;;;6.60;6.20;;;;;;;8.86;92.97;95175.78;5013730;28;20239;-70
2021/09/19 04:40:11;;;;;;;5.97;5.50;;;;;;;8.85;93.38;95174.97;5014237;28;20243;-69
2021/09/19 04:42:39;;;;;;;5.07;4.67;;;;;;;8.83;92.77;95169.88;5018257;28;20309;-69
2021/09/19 04:45:10;;;;;;;7.43;6.83;;;;;;;8.82;92.89;95176.16;5012453;28;20237;-68
2021/09/19 04:47:38;;;;;;;6.93;6.50;;;;;;;8.83;93.37;95179.59;5010290;28;20234;-68
2021/09/19 04:50:07;;;;;;;6.97;6.47;;;;;;;8.80;92.89;95186.06;5017555;28;20228;-68
2021/09/19 04:52:37;;;;;;;6.23;5.83;;;;;;;8.76;92.52;95187.41;5022746;28;20305;-69
2021/09/19 04:55:06;;;;;;;5.23;4.93;;;;;;;8.73;92.59;95182.53;5013404;28;20259;-68
2021/09/19 04:57:34;;;;;;;4.10;3.80;;;;;;;8.70;92.71;95177.63;5024878;28;20221;-68
2021/09/19 05:00:05;;;;;;;4.60;4.20;;;;;;;8.70;92.66;95177.63;5017962;28;20251;-68
2021/09/19 05:02:32;;;;;;;5.40;4.90;;;;;;;8.71;92.83;95179.25;5023216;28;20231;-69
2021/09/19 05:05:01;;;;;;;7.60;6.77;;;;;;;8.71;93.37;95174.00;5017387;28;20397;-68
2021/09/19 05:07:29;;;;;;;8.87;8.17;;;;;;;8.72;93.29;95180.91;5023041;28;20479;-68
2021/09/19 05:09:58;;;;;;;10.30;9.43;;;;;;;8.73;93.55;95192.22;5024796;28;20273;-68
2021/09/19 05:12:27;;;;;;;8.50;7.87;;;;;;;8.73;93.22;95186.97;5017328;28;20220;-68
2021/09/19 05:14:55;;;;;;;6.40;6.00;;;;;;;8.72;93.43;95187.97;5010828;28;20226;-68
2021/09/19 05:17:24;;;;;;;6.47;6.03;;;;;;;8.71;93.48;95184.53;5009492;28;20216;-68
2021/09/19 05:19:52;;;;;;;11.30;10.40;;;;;;;8.74;94.01;95189.41;5026135;28;20235;-68
2021/09/19 05:22:20;;;;;;;7.07;6.67;;;;;;;8.76;93.98;95191.84;5007763;28;20213;-68
2021/09/19 05:24:48;;;;;;;7.13;6.73;;;;;;;8.77;94.11;95191.66;5018549;28;20301;-68
2021/09/19 05:27:17;;;;;;;6.03;5.63;;;;;;;8.76;94.17;95197.94;5020469;28;20582;-68
2021/09/19 05:29:46;;;;;;;7.13;6.63;;;;;;;8.77;93.72;95194.28;5023788;28;20231;-68
2021/09/19 05:32:14;;;;;;;7.97;7.40;;;;;;;8.76;93.97;95199.75;5016141;28;20219;-68
2021/09/19 05:34:42;;;;;;;6.13;5.73;;;;;;;8.75;93.28;95196.31;5014940;28;20330;-68
2021/09/19 05:37:09;;;;;;;8.17;7.50;;;;;;;8.79;93.69;95194.13;5007403;28;20262;-68
2021/09/19 05:39:38;;;;;;;7.83;7.33;;;;;;;8.86;93.89;95194.19;5018624;28;20274;-68
2021/09/19 05:42:06;;;;;;;7.90;7.40;;;;;;;8.92;93.93;95190.84;5024321;28;20770;-68
2021/09/19 05:44:36;;;;;;;7.30;6.77;;;;;;;8.95;93.78;95185.19;5006525;28;20286;-68
2021/09/19 05:47:04;;;;;;;7.43;6.97;;;;;;;9.02;93.85;95196.63;5017686;28;20227;-68
2021/09/19 05:49:33;;;;;;;7.47;6.97;;;;;;;9.05;93.55;95193.59;5017556;28;20282;-68
2021/09/19 05:52:01;;;;;;;5.30;4.90;;;;;;;9.08;93.17;95195.88;5020148;28;20243;-68
2021/09/19 05:54:28;;;;;;;5.63;5.33;;;;;;;9.10;93.34;95193.88;5018342;28;20224;-68
2021/09/19 05:56:57;;;;;;;5.30;5.03;;;;;;;9.18;93.02;95191.13;5014562;28;20662;-68
2021/09/19 05:59:24;;;;;;;6.40;6.00;;;;;;;9.25;93.25;95202.56;5006941;28;20573;-69
2021/09/19 06:01:54;;;;;;;7.30;6.63;;;;;;;9.33;92.89;95205.06;5017362;28;20242;-68
2021/09/19 06:04:24;;;;;;;7.40;6.90;;;;;;;9.38;92.64;95204.50;5019114;28;20310;-68
2021/09/19 06:06:52;;;;;;;7.30;6.90;;;;;;;9.48;93.09;95196.28;5022652;28;20258;-68
2021/09/19 06:09:20;;;;;;;7.27;6.87;;;;;;;9.61;92.50;95188.50;5021314;28;20211;-68
2021/09/19 06:11:48;;;;;;;6.97;6.57;;;;;;;9.74;92.44;95190.44;5035684;28;20223;-68
2021/09/19 06:14:16;;;;;;;6.93;6.43;;;;;;;9.88;92.70;95182.47;5023239;28;20331;-68
2021/09/19 06:16:44;;;;;;;6.97;6.47;;;;;;;10.01;91.85;95191.47;5013057;28;20824;-69
2021/09/19 06:19:13;;;;;;;7.03;6.63;;;;;;;10.10;91.38;95185.84;4998171;28;20235;-68
2021/09/19 06:21:41;;;;;;;7.13;6.73;;;;;;;10.16;91.02;95185.09;5013282;28;20316;-68
2021/09/19 06:24:09;;;;;;;7.60;7.10;;;;;;;10.22;91.40;95178.25;5013057;28;20243;-68
2021/09/19 06:26:37;;;;;;;7.10;6.63;;;;;;;10.30;91.24;95186.00;5017002;28;20747;-68
2021/09/19 06:29:05;;;;;;;5.70;5.30;;;;;;;10.41;90.55;95189.94;5016350;28;20220;-69
2021/09/19 06:31:33;;;;;;;6.17;5.87;;;;;;;10.51;90.40;95185.94;5006884;28;20224;-68
2021/09/19 06:34:02;;;;;;;6.00;5.70;;;;;;;10.63;90.35;95180.13;5010093;28;20228;-68
2021/09/19 06:36:31;;;;;;;7.50;7.00;;;;;;;10.72;90.46;95190.31;5019311;28;20303;-69
2021/09/19 06:39:00;;;;;;;6.83;6.00;;;;;;;10.76;90.85;95188.09;5015535;28;20326;-68
2021/09/19 06:41:28;;;;;;;6.03;5.63;;;;;;;10.85;91.06;95178.97;5023046;28;20275;-68
2021/09/19 06:43:56;;;;;;;6.40;6.00;;;;;;;10.98;91.17;95179.06;4998496;28;20220;-69
2021/09/19 06:46:29;;;;;;;8.03;7.53;;;;;;;11.12;91.71;95185.16;5015863;28;20259;-69
2021/09/19 06:48:58;;;;;;;8.37;7.77;;;;;;;11.25;92.17;95179.13;5025436;28;20231;-68
2021/09/19 06:51:28;;;;;;;7.60;7.00;;;;;;;11.37;92.10;95173.06;5021104;28;20825;-69
2021/09/19 06:54:00;;;;;;;8.57;7.97;;;;;;;11.48;92.12;95163.72;5011394;28;20317;-68
2021/09/19 06:56:28;;;;;;;11.97;11.00;;;;;;;11.58;92.45;95165.97;5027015;28;20295;-68
2021/09/19 06:58:56;;;;;;;8.57;7.97;;;;;;;11.73;92.60;95171.06;5000248;28;20615;-69
2021/09/19 07:01:25;;;;;;;9.10;8.43;;;;;;;11.86;92.80;95176.38;5026323;28;20364;-68
2021/09/19 07:03:54;;;;;;;10.50;9.70;;;;;;;11.96;92.92;95166.19;5018147;28;20219;-69
2021/09/19 07:06:22;;;;;;;11.37;10.37;;;;;;;12.12;92.57;95172.91;5008996;28;20246;-68
2021/09/19 07:08:50;;;;;;;11.67;10.77;;;;;;;12.27;92.23;95178.00;5013408;28;20226;-69
2021/09/19 07:11:19;;;;;;;13.13;11.87;;;;;;;12.40;91.65;95176.13;5022593;28;20699;-69
2021/09/19 07:13:48;;;;;;;10.43;9.60;;;;;;;12.52;91.29;95173.63;5014315;28;20229;-69
2021/09/19 07:16:16;;;;;;;11.27;10.57;;;;;;;12.58;90.03;95169.38;5025213;28;20231;-69
2021/09/19 07:18:44;;;;;;;11.17;8.83;;;;;;;12.55;90.13;95170.59;5014927;28;20212;-69
2021/09/19 07:21:12;;;;;;;11.73;10.77;;;;;;;12.64;90.34;95172.00;5011895;28;20322;-69
2021/09/19 07:23:40;;;;;;;10.10;9.40;;;;;;;12.76;89.93;95178.25;5022604;28;20216;-68
2021/09/19 07:26:08;;;;;;;10.97;10.17;;;;;;;12.94;90.06;95176.78;5021172;28;20223;-69
2021/09/19 07:28:38;;;;;;;11.77;10.77;;;;;;;13.10;89.94;95171.81;5018446;28;20314;-69
2021/09/19 07:31:06;;;;;;;11.03;10.13;;;;;;;13.19;88.58;95175.06;5021444;28;20220;-68
2021/09/19 07:33:35;;;;;;;13.37;10.33;;;;;;;13.27;88.18;95179.31;5008297;28;20223;-69
2021/09/19 07:36:03;;;;;;;12.30;11.20;;;;;;;13.40;87.68;95173.13;5010007;28;20314;-68
2021/09/19 07:38:32;;;;;;;11.00;10.00;;;;;;;13.52;87.48;95176.69;5019192;28;20216;-69
2021/09/19 07:41:00;;;;;;;10.33;9.63;;;;;;;13.65;87.64;95181.94;5020651;28;20273;-69
2021/09/19 07:43:28;;;;;;;13.47;11.20;;;;;;;13.72;86.76;95182.72;5026679;28;20222;-68
2021/09/19 07:45:59;;;;;;;12.90;11.67;;;;;;;13.72;85.91;95176.59;5012436;28;20228;-69
2021/09/19 07:48:27;;;;;;;12.73;11.83;;;;;;;13.93;86.13;95179.69;5021783;28;20594;-69
2021/09/19 07:50:55;;;;;;;13.00;11.97;;;;;;;14.16;86.77;95176.41;5018972;28;20303;-69
2021/09/19 07:53:24;;;;;;;12.87;11.10;;;;;;;14.49;86.17;95178.81;5008726;28;20666;-69
2021/09/19 07:55:52;;;;;;;12.57;11.60;;;;;;;14.69;85.01;95172.47;5014698;28;20223;-69
2021/09/19 07:58:20;;;;;;;12.80;11.80;;;;;;;14.83;83.53;95168.63;5018911;28;20753;-69
2021/09/19 08:00:49;;;;;;;11.97;10.97;;;;;;;14.97;82.97;95172.75;5017163;28;20216;-69
2021/09/19 08:03:18;;;;;;;9.80;8.90;;;;;;;15.11;83.03;95167.28;5031475;28;20256;-69
2021/09/19 08:05:47;;;;;;;11.50;10.47;;;;;;;15.15;82.21;95174.56;5025351;28;20267;-69
2021/09/19 08:08:15;;;;;;;11.50;10.50;;;;;;;15.25;82.46;95171.38;5023760;28;20230;-69
2021/09/19 08:10:43;;;;;;;9.50;8.77;;;;;;;15.39;82.32;95178.16;5020974;28;20650;-69
2021/09/19 08:13:12;;;;;;;10.50;9.70;;;;;;;15.48;81.63;95176.81;5024368;28;20228;-69
2021/09/19 08:15:40;;;;;;;11.43;10.63;;;;;;;15.65;82.10;95177.00;5025039;28;20321;-69
2021/09/19 08:18:09;;;;;;;10.77;10.03;;;;;;;15.91;82.04;95176.63;5019591;28;20616;-69
2021/09/19 08:20:38;;;;;;;10.97;10.07;;;;;;;16.09;80.43;95188.19;5023315;28;20215;-69
2021/09/19 08:23:06;;;;;;;9.80;9.20;;;;;;;16.28;79.82;95180.94;5012291;28;20693;-69
2021/09/19 08:25:34;;;;;;;9.90;9.20;;;;;;;16.55;79.46;95182.09;5018105;28;20311;-69
2021/09/19 08:28:03;;;;;;;9.27;8.73;;;;;;;16.74;78.75;95180.16;5014486;28;20315;-69
2021/09/19 08:30:31;;;;;;;8.43;7.83;;;;;;;17.12;78.31;95181.47;5017734;28;20613;-69
2021/09/19 08:32:59;;;;;;;8.57;8.03;;;;;;;17.30;77.96;95187.44;5021492;28;20306;-69
2021/09/19 08:35:27;;;;;;;10.83;10.13;;;;;;;17.41;75.85;95184.94;5020505;28;20311;-69
2021/09/19 08:37:56;;;;;;;5.97;5.57;;;;;;;17.52;75.24;95189.44;5019017;28;20615;-69
2021/09/19 08:40:24;;;;;;;8.13;7.53;;;;;;;17.62;75.23;95186.94;5026418;28;20228;-69
2021/09/19 08:42:54;;;;;;;8.77;8.17;;;;;;;17.80;74.95;95184.09;5025826;28;20738;-69
2021/09/19 08:45:23;;;;;;;7.17;6.77;;;;;;;17.99;74.19;95187.34;5006498;28;20255;-70
2021/09/19 08:47:52;;;;;;;7.83;7.33;;;;;;;18.05;73.80;95183.72;5008332;28;20231;-70
2021/09/19 08:50:21;;;;;;;6.73;6.30;;;;;;;18.26;73.54;95190.19;5012910;28;20281;-69
2021/09/19 08:52:49;;;;;;;8.87;8.07;;;;;;;18.43;73.09;95195.53;5025951;28;20615;-69
2021/09/19 08:55:18;;;;;;;7.33;6.93;;;;;;;18.60;72.46;95187.50;5020906;28;20324;-70
2021/09/19 08:57:46;;;;;;;9.23;8.53;;;;;;;18.62;71.25;95190.75;5023965;28;20262;-69
2021/09/19 09:00:17;;;;;;;7.73;7.23;;;;;;;18.81;71.31;95191.31;5022007;28;20294;-70
2021/09/19 09:02:51;;;;;;;8.20;7.70;;;;;;;18.89;69.87;95191.69;5012112;28;20516;-70
2021/09/19 09:05:21;;;;;;;7.63;7.03;;;;;;;19.12;70.57;95195.22;5024626;28;20229;-70
2021/09/19 09:07:52;;;;;;;6.43;6.03;;;;;;;19.23;69.74;95197.75;5016389;28;20624;-70
2021/09/19 09:10:36;;;;;;;6.87;6.47;;;;;;;19.54;69.00;95198.91;5008110;28;20281;-70
2021/09/19 09:13:06;;;;;;;7.33;6.80;;;;;;;19.65;67.98;95204.38;5008730;28;20315;-69
2021/09/19 09:15:36;;;;;;;7.40;7.00;;;;;;;19.81;67.26;95198.16;5014095;28;20231;-70
2021/09/19 09:18:05;;;;;;;8.53;7.93;;;;;;;19.88;66.80;95199.56;5021573;28;20604;-70
2021/09/19 09:20:50;;;;;;;6.73;6.23;;;;;;;20.13;65.57;95209.72;5022230;28;20216;-69
2021/09/19 09:23:31;;;;;;;6.90;6.50;;;;;;;20.29;65.43;95215.19;5007892;28;20255;-70
2021/09/19 09:26:19;;;;;;;8.23;5.53;;;;;;;20.55;64.53;95219.72;5019243;28;20347;-70
2021/09/19 09:28:52;;;;;;;8.77;8.17;;;;;;;20.89;63.97;95211.38;5012267;28;20220;-70
2021/09/19 09:31:26;;;;;;;7.07;6.67;;;;;;;21.15;63.75;95220.38;5014768;28;20247;-70
2021/09/19 09:33:59;;;;;;;6.00;5.70;;;;;;;21.40;62.72;95214.34;5010822;28;20230;-70
2021/09/19 09:36:36;;;;;;;7.07;6.57;;;;;;;21.78;62.53;95208.56;5008013;28;20637;-70
2021/09/19 09:39:38;;;;;;;6.40;6.00;;;;;;;22.27;61.25;95210.81;5020617;28;20747;-70
2021/09/19 09:42:10;;;;;;;6.43;6.03;;;;;;;22.55;61.06;95211.34;5022719;28;20231;-70
2021/09/19 09:44:41;;;;;;;5.23;4.93;;;;;;;22.90;60.70;95194.38;5016113;28;20588;-70
2021/09/19 09:47:13;;;;;;;6.77;6.37;;;;;;;23.27;59.39;95205.59;5026155;28;20284;-70
2021/09/19 09:49:48;;;;;;;6.07;5.67;;;;;;;23.28;57.74;95206.38;5012665;28;20326;-70
2021/09/19 09:52:20;;;;;;;9.13;8.60;;;;;;;23.34;58.41;95205.31;5009981;28;20239;-70
2021/09/19 09:54:51;;;;;;;5.63;5.33;;;;;;;23.60;58.98;95208.72;5020364;28;20255;-71
2021/09/19 09:57:57;;;;;;;5.70;5.40;;;;;;;23.88;57.87;95204.53;5006518;28;20286;-70
2021/09/19 10:00:25;;;;;;;5.50;5.20;;;;;;;24.17;56.80;95206.50;5016080;28;20250;-70
2021/09/19 10:02:53;;;;;;;6.20;5.90;;;;;;;24.36;56.20;95202.09;5023631;28;20311;-70
2021/09/19 10:05:22;;;;;;;4.93;4.73;;;;;;;24.26;56.20;95204.81;5019970;28;20314;-70
2021/09/19 10:07:51;;;;;;;5.20;4.90;;;;;;;24.56;53.72;95204.59;5013955;28;20665;-70
2021/09/19 10:10:21;;;;;;;4.03;3.83;;;;;;;24.56;53.96;95215.41;5019414;28;20311;-70
2021/09/19 10:12:52;;;;;;;4.83;4.33;;;;;;;24.50;53.74;95213.00;5030823;28;20278;-70
2021/09/19 10:15:21;;;;;;;4.73;4.53;;;;;;;24.66;52.75;95209.91;5015076;28;20250;-70
2021/09/19 10:17:50;;;;;;;5.53;5.23;;;;;;;24.60;51.86;95215.66;5010190;28;20223;-70
2021/09/19 10:20:20;;;;;;;6.10;5.80;;;;;;;24.76;51.66;95205.50;5015365;28;20224;-70
2021/09/19 10:22:55;;;;;;;5.57;5.27;;;;;;;24.84;52.45;95200.31;5007001;28;20259;-70
2021/09/19 10:25:41;;;;;;;4.93;4.73;;;;;;;25.27;52.46;95191.53;5015686;28;20207;-70
2021/09/19 10:28:33;;;;;;;6.32;5.93;;;;;;;24.86;51.53;95191.91;5010435;28;20305;-71
2021/09/19 10:31:32;;;;;;;6.33;5.93;;;;;;;24.83;51.86;95187.09;4999248;28;20324;-70
2021/09/19 10:34:04;;;;;;;4.73;4.43;;;;;;;25.21;52.35;95188.06;5012243;28;20836;-70
2021/09/19 10:36:41;;;;;;;5.47;5.20;;;;;;;25.71;52.55;95185.88;5017717;28;20231;-70
2021/09/19 10:39:18;;;;;;;5.00;4.70;;;;;;;25.67;52.04;95190.22;5011908;28;20304;-70
2021/09/19 10:42:13;;;;;;;4.00;2.90;;;;;;;25.92;52.67;95186.41;5012607;28;20813;-70
2021/09/19 10:45:02;;;;;;;4.25;3.95;;;;;;;25.44;52.08;95189.16;5007329;28;20222;-71
2021/09/19 10:47:36;;;;;;;3.63;3.42;;;;;;;24.74;53.65;95188.81;5004037;28;20289;-70
2021/09/19 10:50:25;;;;;;;3.97;3.78;;;;;;;24.23;55.45;95183.78;5017382;28;20270;-70
2021/09/19 10:52:57;;;;;;;3.85;3.65;;;;;;;23.64;56.82;95187.41;5014679;28;20665;-70
2021/09/19 10:55:29;;;;;;;3.50;3.33;;;;;;;23.24;57.46;95179.22;5012240;28;20700;-70
2021/09/19 10:58:03;;;;;;;6.73;3.50;;;;;;;22.97;59.07;95179.56;5019770;28;20227;-70
2021/09/19 11:00:34;;;;;;;4.72;4.53;;;;;;;22.65;59.79;95181.75;5015067;28;20364;-69
2021/09/19 11:03:14;;;;;;;3.65;3.55;;;;;;;22.46;60.37;95176.13;5017979;28;20681;-70
2021/09/19 11:05:53;;;;;;;6.60;5.30;;;;;;;22.26;60.31;95179.63;5017323;28;20235;-69
2021/09/19 11:08:39;;;;;;;6.37;5.97;;;;;;;22.02;60.23;95181.19;5018512;28;20240;-69
2021/09/19 11:11:23;;;;;;;6.10;5.77;;;;;;;22.70;59.49;95179.88;5018431;28;20227;-70
2021/09/19 11:13:55;;;;;;;5.67;5.37;;;;;;;22.99;59.98;95176.59;5007752;28;21387;-70
2021/09/19 11:16:43;;;;;;;6.07;5.73;;;;;;;23.61;57.19;95177.22;5010970;28;20657;-69
2021/09/19 11:19:14;;;;;;;5.87;5.40;;;;;;;24.37;55.88;95176.72;5008498;28;20269;-70
2021/09/19 11:21:49;;;;;;;4.73;4.43;;;;;;;24.64;56.22;95174.31;5024258;28;20219;-70
2021/09/19 11:24:21;;;;;;;4.47;4.20;;;;;;;24.80;55.18;95172.28;5013274;28;20251;-70
2021/09/19 11:26:54;;;;;;;5.00;4.80;;;;;;;25.04;53.45;95161.53;5006707;28;20216;-70
2021/09/19 11:29:43;;;;;;;5.77;5.47;;;;;;;25.10;54.68;95168.47;5011592;28;20362;-70
2021/09/19 11:32:15;;;;;;;6.63;6.30;;;;;;;24.32;53.19;95177.59;5020609;28;20709;-70
2021/09/19 11:34:43;;;;;;;4.13;3.93;;;;;;;23.70;55.16;95178.25;5019325;28;20255;-70
2021/09/19 11:37:11;;;;;;;6.40;6.00;;;;;;;23.21;55.01;95171.69;5004503;28;20631;-69
2021/09/19 11:39:40;;;;;;;5.20;4.80;;;;;;;22.92;55.18;95182.25;5016549;28;20312;-70
2021/09/19 11:42:11;;;;;;;4.83;4.33;;;;;;;22.59;56.66;95186.34;5023005;28;20216;-70
2021/09/19 11:44:46;;;;;;;5.67;5.37;;;;;;;22.22;57.44;95178.56;5015212;28;20250;-70
2021/09/19 11:47:18;;;;;;;5.63;5.23;;;;;;;22.03;59.02;95180.91;5011994;28;20215;-70